sensor_id;sensor_type;location;lat;lon;timestamp;P1;durP1;ratioP1;P2;durP2;ratioP2
43819;SDS011;67762;52.476;6.046;2023-05-20T00:07:17;134.50;;;126.68;;
43819;SDS011;67762;52.476;6.046;2023-05-20T00:24:31;1999.90;;;999.90;;
43819;SDS011;67762;52.476;6.046;2023-05-20T00:26:57;1999.90;;;999.90;;
43819;SDS011;67762;52.476;6.046;2023-05-20T00:29:22;1999.90;;;999.90;;
43819;SDS011;67762;52.476;6.046;2023-05-20T00:31:48;1999.90;;;999.90;;
43819;SDS011;67762;52.476;6.046;2023-05-20T00:34:14;1999.90;;;999.90;;
43819;SDS011;67762;52.476;6.046;2023-05-20T00:36:39;1999.90;;;999.90;;
43819;SDS011;67762;52.476;6.046;2023-05-20T00:39:05;1999.90;;;999.90;;
43819;SDS011;67762;52.476;6.046;2023-05-20T00:41:31;1999.90;;;999.90;;
43819;SDS011;67762;52.476;6.046;2023-05-20T00:43:57;1999.90;;;999.90;;
43819;SDS011;67762;52.476;6.046;2023-05-20T00:46:22;1999.90;;;999.90;;
43819;SDS011;67762;52.476;6.046;2023-05-20T00:48:48;1999.90;;;999.90;;
43819;SDS011;67762;52.476;6.046;2023-05-20T00:51:14;148.85;;;140.05;;
43819;SDS011;67762;52.476;6.046;2023-05-20T00:53:41;1083.75;;;578.95;;
43819;SDS011;67762;52.476;6.046;2023-05-20T00:56:07;1999.90;;;999.90;;
43819;SDS011;67762;52.476;6.046;2023-05-20T00:58:34;127.97;;;120.68;;
43819;SDS011;67762;52.476;6.046;2023-05-20T01:01:03;582.75;;;328.33;;
43819;SDS011;67762;52.476;6.046;2023-05-20T01:03:29;1999.90;;;999.90;;
43819;SDS011;67762;52.476;6.046;2023-05-20T01:05:55;1999.90;;;999.90;;
43819;SDS011;67762;52.476;6.046;2023-05-20T01:08:22;104.45;;;98.30;;
43819;SDS011;67762;52.476;6.046;2023-05-20T01:10:50;1999.90;;;999.90;;
43819;SDS011;67762;52.476;6.046;2023-05-20T01:13:42;1054.95;;;551.80;;
43819;SDS011;67762;52.476;6.046;2023-05-20T01:16:11;122.90;;;115.78;;
43819;SDS011;67762;52.476;6.046;2023-05-20T01:18:41;1999.90;;;999.90;;
43819;SDS011;67762;52.476;6.046;2023-05-20T01:21:10;1999.90;;;999.90;;
43819;SDS011;67762;52.476;6.046;2023-05-20T01:23:37;1999.90;;;999.90;;
43819;SDS011;67762;52.476;6.046;2023-05-20T01:26:07;93.55;;;88.05;;
43819;SDS011;67762;52.476;6.046;2023-05-20T01:28:34;570.05;;;315.70;;
43819;SDS011;67762;52.476;6.046;2023-05-20T01:31:01;602.30;;;346.58;;
43819;SDS011;67762;52.476;6.046;2023-05-20T01:33:29;1999.90;;;999.90;;
43819;SDS011;67762;52.476;6.046;2023-05-20T01:35:56;102.80;;;96.78;;
43819;SDS011;67762;52.476;6.046;2023-05-20T01:38:23;104.40;;;98.10;;
43819;SDS011;67762;52.476;6.046;2023-05-20T01:40:49;90.25;;;85.03;;
43819;SDS011;67762;52.476;6.046;2023-05-20T01:43:16;1999.90;;;999.90;;
43819;SDS011;67762;52.476;6.046;2023-05-20T01:45:43;87.47;;;81.80;;
43819;SDS011;67762;52.476;6.046;2023-05-20T01:48:09;120.53;;;113.68;;
43819;SDS011;67762;52.476;6.046;2023-05-20T01:50:36;569.05;;;314.77;;
43819;SDS011;67762;52.476;6.046;2023-05-20T01:53:02;110.47;;;103.93;;
43819;SDS011;67762;52.476;6.046;2023-05-20T01:55:29;1999.90;;;999.90;;
43819;SDS011;67762;52.476;6.046;2023-05-20T01:57:55;1999.90;;;999.90;;
43819;SDS011;67762;52.476;6.046;2023-05-20T02:00:20;1999.90;;;999.90;;
43819;SDS011;67762;52.476;6.046;2023-05-20T02:02:47;109.90;;;103.75;;
43819;SDS011;67762;52.476;6.046;2023-05-20T02:05:13;106.53;;;100.28;;
43819;SDS011;67762;52.476;6.046;2023-05-20T02:07:41;577.85;;;323.17;;
43819;SDS011;67762;52.476;6.046;2023-05-20T02:10:06;1999.90;;;999.90;;
43819;SDS011;67762;52.476;6.046;2023-05-20T02:12:35;1999.90;;;999.90;;
43819;SDS011;67762;52.476;6.046;2023-05-20T02:15:01;105.00;;;98.90;;
43819;SDS011;67762;52.476;6.046;2023-05-20T02:17:27;621.42;;;364.60;;
43819;SDS011;67762;52.476;6.046;2023-05-20T02:19:53;1999.90;;;999.90;;
43819;SDS011;67762;52.476;6.046;2023-05-20T02:22:19;123.70;;;116.38;;
43819;SDS011;67762;52.476;6.046;2023-05-20T02:24:44;1053.22;;;550.17;;
43819;SDS011;67762;52.476;6.046;2023-05-20T02:27:10;69.65;;;65.18;;
43819;SDS011;67762;52.476;6.046;2023-05-20T02:29:36;1999.90;;;999.90;;
43819;SDS011;67762;52.476;6.046;2023-05-20T02:32:01;64.20;;;60.33;;
43819;SDS011;67762;52.476;6.046;2023-05-20T02:34:27;73.35;;;68.40;;
43819;SDS011;67762;52.476;6.046;2023-05-20T02:36:55;1999.90;;;999.90;;
43819;SDS011;67762;52.476;6.046;2023-05-20T02:39:21;102.00;;;95.60;;
43819;SDS011;67762;52.476;6.046;2023-05-20T02:41:48;1043.38;;;540.70;;
43819;SDS011;67762;52.476;6.046;2023-05-20T02:44:14;1999.90;;;999.90;;
43819;SDS011;67762;52.476;6.046;2023-05-20T02:46:39;1999.90;;;999.90;;
43819;SDS011;67762;52.476;6.046;2023-05-20T02:49:05;1999.90;;;999.90;;
43819;SDS011;67762;52.476;6.046;2023-05-20T02:51:31;1999.90;;;999.90;;
43819;SDS011;67762;52.476;6.046;2023-05-20T02:53:58;1999.90;;;999.90;;
43819;SDS011;67762;52.476;6.046;2023-05-20T02:56:23;1999.90;;;999.90;;
43819;SDS011;67762;52.476;6.046;2023-05-20T02:58:49;1999.90;;;999.90;;
43819;SDS011;67762;52.476;6.046;2023-05-20T03:01:15;1999.90;;;999.90;;
43819;SDS011;67762;52.476;6.046;2023-05-20T03:03:41;1999.90;;;999.90;;
43819;SDS011;67762;52.476;6.046;2023-05-20T03:06:06;1999.90;;;999.90;;
43819;SDS011;67762;52.476;6.046;2023-05-20T03:08:32;1999.90;;;999.90;;
43819;SDS011;67762;52.476;6.046;2023-05-20T03:10:59;1999.90;;;999.90;;
43819;SDS011;67762;52.476;6.046;2023-05-20T03:13:26;1999.90;;;999.90;;
43819;SDS011;67762;52.476;6.046;2023-05-20T03:15:51;1999.90;;;999.90;;
43819;SDS011;67762;52.476;6.046;2023-05-20T03:18:17;1999.90;;;999.90;;
43819;SDS011;67762;52.476;6.046;2023-05-20T03:20:44;1999.90;;;999.90;;
43819;SDS011;67762;52.476;6.046;2023-05-20T03:23:10;1999.90;;;999.90;;
43819;SDS011;67762;52.476;6.046;2023-05-20T03:25:36;1999.90;;;999.90;;
43819;SDS011;67762;52.476;6.046;2023-05-20T03:28:03;81.20;;;76.18;;
43819;SDS011;67762;52.476;6.046;2023-05-20T03:30:32;1999.90;;;999.90;;
43819;SDS011;67762;52.476;6.046;2023-05-20T03:32:58;1999.90;;;999.90;;
43819;SDS011;67762;52.476;6.046;2023-05-20T03:35:24;1999.90;;;999.90;;
43819;SDS011;67762;52.476;6.046;2023-05-20T03:37:50;1999.90;;;999.90;;
43819;SDS011;67762;52.476;6.046;2023-05-20T03:40:18;1999.90;;;999.90;;
43819;SDS011;67762;52.476;6.046;2023-05-20T03:42:47;563.25;;;309.42;;
43819;SDS011;67762;52.476;6.046;2023-05-20T03:45:16;1999.90;;;999.90;;
43819;SDS011;67762;52.476;6.046;2023-05-20T03:47:51;1999.90;;;999.90;;
43819;SDS011;67762;52.476;6.046;2023-05-20T03:50:17;1999.90;;;999.90;;
43819;SDS011;67762;52.476;6.046;2023-05-20T03:52:43;105.20;;;99.03;;
43819;SDS011;67762;52.476;6.046;2023-05-20T03:55:09;1999.90;;;999.90;;
43819;SDS011;67762;52.476;6.046;2023-05-20T03:57:35;1999.90;;;999.90;;
43819;SDS011;67762;52.476;6.046;2023-05-20T04:00:01;1999.90;;;999.90;;
43819;SDS011;67762;52.476;6.046;2023-05-20T04:02:30;1999.90;;;999.90;;
43819;SDS011;67762;52.476;6.046;2023-05-20T04:04:56;1999.90;;;999.90;;
43819;SDS011;67762;52.476;6.046;2023-05-20T04:07:22;1999.90;;;999.90;;
43819;SDS011;67762;52.476;6.046;2023-05-20T04:09:48;598.75;;;343.48;;
43819;SDS011;67762;52.476;6.046;2023-05-20T04:12:13;1999.90;;;999.90;;
43819;SDS011;67762;52.476;6.046;2023-05-20T04:14:39;106.30;;;99.78;;
43819;SDS011;67762;52.476;6.046;2023-05-20T04:17:06;128.43;;;121.20;;
43819;SDS011;67762;52.476;6.046;2023-05-20T04:19:32;1999.90;;;999.90;;
43819;SDS011;67762;52.476;6.046;2023-05-20T04:21:59;189.95;;;179.75;;
43819;SDS011;67762;52.476;6.046;2023-05-20T04:24:25;210.88;;;199.13;;
43819;SDS011;67762;52.476;6.046;2023-05-20T04:26:52;1107.25;;;601.22;;
43819;SDS011;67762;52.476;6.046;2023-05-20T04:29:18;1072.15;;;568.13;;
43819;SDS011;67762;52.476;6.046;2023-05-20T04:31:44;1999.90;;;999.90;;
43819;SDS011;67762;52.476;6.046;2023-05-20T04:34:13;1999.90;;;999.90;;
43819;SDS011;67762;52.476;6.046;2023-05-20T04:36:39;243.85;;;228.50;;
43819;SDS011;67762;52.476;6.046;2023-05-20T04:39:05;106.80;;;101.15;;
43819;SDS011;67762;52.476;6.046;2023-05-20T04:41:34;1057.47;;;554.33;;
43819;SDS011;67762;52.476;6.046;2023-05-20T04:44:01;92.72;;;87.47;;
43819;SDS011;67762;52.476;6.046;2023-05-20T04:46:28;1999.90;;;999.90;;
43819;SDS011;67762;52.476;6.046;2023-05-20T04:48:54;228.65;;;215.85;;
43819;SDS011;67762;52.476;6.046;2023-05-20T04:51:20;149.40;;;141.45;;
43819;SDS011;67762;52.476;6.046;2023-05-20T04:53:46;1999.90;;;999.90;;
43819;SDS011;67762;52.476;6.046;2023-05-20T04:56:11;228.43;;;214.38;;
43819;SDS011;67762;52.476;6.046;2023-05-20T04:58:37;110.60;;;104.72;;
43819;SDS011;67762;52.476;6.046;2023-05-20T05:01:03;146.32;;;138.23;;
43819;SDS011;67762;52.476;6.046;2023-05-20T05:03:30;167.18;;;158.15;;
43819;SDS011;67762;52.476;6.046;2023-05-20T05:05:57;122.60;;;115.72;;
43819;SDS011;67762;52.476;6.046;2023-05-20T05:08:23;103.43;;;97.88;;
43819;SDS011;67762;52.476;6.046;2023-05-20T05:10:51;123.22;;;116.10;;
43819;SDS011;67762;52.476;6.046;2023-05-20T05:13:17;193.55;;;181.45;;
43819;SDS011;67762;52.476;6.046;2023-05-20T05:15:43;213.98;;;202.48;;
43819;SDS011;67762;52.476;6.046;2023-05-20T05:18:10;95.22;;;89.78;;
43819;SDS011;67762;52.476;6.046;2023-05-20T05:20:36;88.28;;;83.30;;
43819;SDS011;67762;52.476;6.046;2023-05-20T05:23:02;113.90;;;106.85;;
43819;SDS011;67762;52.476;6.046;2023-05-20T05:25:28;120.53;;;113.80;;
43819;SDS011;67762;52.476;6.046;2023-05-20T05:27:53;170.05;;;160.55;;
43819;SDS011;67762;52.476;6.046;2023-05-20T05:30:22;93.07;;;88.05;;
43819;SDS011;67762;52.476;6.046;2023-05-20T05:32:48;88.07;;;82.82;;
43819;SDS011;67762;52.476;6.046;2023-05-20T05:35:13;96.43;;;91.10;;
43819;SDS011;67762;52.476;6.046;2023-05-20T05:37:39;95.20;;;89.88;;
43819;SDS011;67762;52.476;6.046;2023-05-20T05:40:05;139.77;;;132.45;;
43819;SDS011;67762;52.476;6.046;2023-05-20T05:42:32;125.72;;;119.07;;
43819;SDS011;67762;52.476;6.046;2023-05-20T05:44:58;73.45;;;69.20;;
43819;SDS011;67762;52.476;6.046;2023-05-20T05:47:24;85.20;;;80.57;;
43819;SDS011;67762;52.476;6.046;2023-05-20T05:49:53;73.60;;;69.43;;
43819;SDS011;67762;52.476;6.046;2023-05-20T05:52:19;136.70;;;128.85;;
43819;SDS011;67762;52.476;6.046;2023-05-20T05:54:45;249.85;;;232.55;;
43819;SDS011;67762;52.476;6.046;2023-05-20T05:57:11;96.97;;;91.68;;
43819;SDS011;67762;52.476;6.046;2023-05-20T05:59:36;106.55;;;100.65;;
43819;SDS011;67762;52.476;6.046;2023-05-20T06:02:03;96.22;;;90.63;;
43819;SDS011;67762;52.476;6.046;2023-05-20T06:04:28;135.10;;;127.55;;
43819;SDS011;67762;52.476;6.046;2023-05-20T06:06:56;189.48;;;178.60;;
43819;SDS011;67762;52.476;6.046;2023-05-20T06:09:21;138.63;;;130.80;;
43819;SDS011;67762;52.476;6.046;2023-05-20T06:11:47;150.55;;;141.57;;
43819;SDS011;67762;52.476;6.046;2023-05-20T06:14:12;88.68;;;83.75;;
43819;SDS011;67762;52.476;6.046;2023-05-20T06:16:39;99.13;;;93.75;;
43819;SDS011;67762;52.476;6.046;2023-05-20T06:19:05;154.90;;;146.52;;
43819;SDS011;67762;52.476;6.046;2023-05-20T06:21:33;64.50;;;60.95;;
43819;SDS011;67762;52.476;6.046;2023-05-20T06:23:59;128.90;;;121.63;;
43819;SDS011;67762;52.476;6.046;2023-05-20T06:26:25;170.30;;;159.98;;
43819;SDS011;67762;52.476;6.046;2023-05-20T06:28:50;89.90;;;84.88;;
43819;SDS011;67762;52.476;6.046;2023-05-20T06:31:17;144.30;;;135.23;;
43819;SDS011;67762;52.476;6.046;2023-05-20T06:33:43;138.40;;;129.15;;
43819;SDS011;67762;52.476;6.046;2023-05-20T06:36:11;77.97;;;73.72;;
43819;SDS011;67762;52.476;6.046;2023-05-20T06:38:37;136.73;;;128.82;;
43819;SDS011;67762;52.476;6.046;2023-05-20T06:41:02;161.02;;;148.43;;
43819;SDS011;67762;52.476;6.046;2023-05-20T06:43:29;194.30;;;181.65;;
43819;SDS011;67762;52.476;6.046;2023-05-20T06:46:10;124.70;;;116.95;;
43819;SDS011;67762;52.476;6.046;2023-05-20T06:48:45;88.32;;;82.05;;
43819;SDS011;67762;52.476;6.046;2023-05-20T06:51:10;59.63;;;56.22;;
43819;SDS011;67762;52.476;6.046;2023-05-20T06:53:37;95.93;;;90.00;;
43819;SDS011;67762;52.476;6.046;2023-05-20T06:56:03;96.75;;;91.25;;
43819;SDS011;67762;52.476;6.046;2023-05-20T06:58:30;102.22;;;95.95;;
43819;SDS011;67762;52.476;6.046;2023-05-20T07:00:56;81.40;;;76.65;;
43819;SDS011;67762;52.476;6.046;2023-05-20T07:03:22;114.50;;;106.85;;
43819;SDS011;67762;52.476;6.046;2023-05-20T07:05:49;108.80;;;102.20;;
43819;SDS011;67762;52.476;6.046;2023-05-20T07:08:17;61.78;;;58.20;;
43819;SDS011;67762;52.476;6.046;2023-05-20T07:10:43;101.70;;;94.57;;
43819;SDS011;67762;52.476;6.046;2023-05-20T07:13:09;75.38;;;71.07;;
43819;SDS011;67762;52.476;6.046;2023-05-20T07:15:35;63.33;;;59.55;;
43819;SDS011;67762;52.476;6.046;2023-05-20T07:18:01;51.65;;;48.45;;
43819;SDS011;67762;52.476;6.046;2023-05-20T07:20:27;110.00;;;102.97;;
43819;SDS011;67762;52.476;6.046;2023-05-20T07:22:53;59.33;;;55.65;;
43819;SDS011;67762;52.476;6.046;2023-05-20T07:25:37;107.00;;;99.90;;
43819;SDS011;67762;52.476;6.046;2023-05-20T07:28:03;46.42;;;43.75;;
43819;SDS011;67762;52.476;6.046;2023-05-20T07:30:28;45.13;;;42.53;;
43819;SDS011;67762;52.476;6.046;2023-05-20T07:33:10;31.35;;;29.48;;
43819;SDS011;67762;52.476;6.046;2023-05-20T07:35:36;35.75;;;33.63;;
43819;SDS011;67762;52.476;6.046;2023-05-20T07:38:02;44.75;;;42.22;;
43819;SDS011;67762;52.476;6.046;2023-05-20T07:40:27;34.10;;;32.20;;
43819;SDS011;67762;52.476;6.046;2023-05-20T07:42:53;83.35;;;78.10;;
43819;SDS011;67762;52.476;6.046;2023-05-20T07:45:18;63.13;;;59.35;;
43819;SDS011;67762;52.476;6.046;2023-05-20T07:47:44;37.22;;;35.03;;
43819;SDS011;67762;52.476;6.046;2023-05-20T07:50:09;74.45;;;69.85;;
43819;SDS011;67762;52.476;6.046;2023-05-20T07:52:35;57.28;;;54.03;;
43819;SDS011;67762;52.476;6.046;2023-05-20T07:55:01;51.92;;;48.90;;
43819;SDS011;67762;52.476;6.046;2023-05-20T07:57:28;37.85;;;35.58;;
43819;SDS011;67762;52.476;6.046;2023-05-20T07:59:53;57.05;;;53.67;;
43819;SDS011;67762;52.476;6.046;2023-05-20T08:02:19;44.85;;;41.60;;
43819;SDS011;67762;52.476;6.046;2023-05-20T08:04:46;49.05;;;46.17;;
43819;SDS011;67762;52.476;6.046;2023-05-20T08:07:12;38.83;;;36.35;;
43819;SDS011;67762;52.476;6.046;2023-05-20T08:09:49;62.05;;;58.38;;
43819;SDS011;67762;52.476;6.046;2023-05-20T08:12:17;29.35;;;27.45;;
43819;SDS011;67762;52.476;6.046;2023-05-20T08:14:42;46.92;;;44.22;;
43819;SDS011;67762;52.476;6.046;2023-05-20T08:17:09;27.75;;;26.10;;
43819;SDS011;67762;52.476;6.046;2023-05-20T08:19:35;36.30;;;34.08;;
43819;SDS011;67762;52.476;6.046;2023-05-20T08:22:01;27.63;;;25.80;;
43819;SDS011;67762;52.476;6.046;2023-05-20T08:24:26;31.08;;;29.27;;
43819;SDS011;67762;52.476;6.046;2023-05-20T08:26:53;40.58;;;38.22;;
43819;SDS011;67762;52.476;6.046;2023-05-20T08:29:21;59.40;;;55.05;;
43819;SDS011;67762;52.476;6.046;2023-05-20T08:31:47;37.88;;;35.38;;
43819;SDS011;67762;52.476;6.046;2023-05-20T08:34:12;41.47;;;39.20;;
43819;SDS011;67762;52.476;6.046;2023-05-20T08:36:38;29.65;;;27.83;;
43819;SDS011;67762;52.476;6.046;2023-05-20T08:39:04;50.50;;;47.38;;
43819;SDS011;67762;52.476;6.046;2023-05-20T08:41:30;69.65;;;64.47;;
43819;SDS011;67762;52.476;6.046;2023-05-20T08:43:56;41.88;;;38.80;;
43819;SDS011;67762;52.476;6.046;2023-05-20T08:46:25;26.70;;;25.02;;
43819;SDS011;67762;52.476;6.046;2023-05-20T08:48:53;29.40;;;27.25;;
43819;SDS011;67762;52.476;6.046;2023-05-20T08:51:19;27.40;;;25.42;;
43819;SDS011;67762;52.476;6.046;2023-05-20T08:53:48;37.03;;;34.75;;
43819;SDS011;67762;52.476;6.046;2023-05-20T08:56:14;34.33;;;32.33;;
43819;SDS011;67762;52.476;6.046;2023-05-20T08:58:40;29.40;;;27.50;;
43819;SDS011;67762;52.476;6.046;2023-05-20T09:01:07;28.75;;;26.60;;
43819;SDS011;67762;52.476;6.046;2023-05-20T09:03:33;29.65;;;27.85;;
43819;SDS011;67762;52.476;6.046;2023-05-20T09:06:02;27.08;;;25.27;;
43819;SDS011;67762;52.476;6.046;2023-05-20T09:08:29;46.25;;;43.30;;
43819;SDS011;67762;52.476;6.046;2023-05-20T09:10:55;24.48;;;22.92;;
43819;SDS011;67762;52.476;6.046;2023-05-20T09:13:22;30.58;;;28.85;;
43819;SDS011;67762;52.476;6.046;2023-05-20T09:15:48;34.78;;;32.75;;
43819;SDS011;67762;52.476;6.046;2023-05-20T09:18:13;31.40;;;29.20;;
43819;SDS011;67762;52.476;6.046;2023-05-20T09:20:39;64.53;;;59.10;;
43819;SDS011;67762;52.476;6.046;2023-05-20T09:23:06;30.33;;;28.52;;
43819;SDS011;67762;52.476;6.046;2023-05-20T09:25:34;20.48;;;19.27;;
43819;SDS011;67762;52.476;6.046;2023-05-20T09:28:01;23.35;;;21.52;;
43819;SDS011;67762;52.476;6.046;2023-05-20T09:30:31;29.88;;;27.95;;
43819;SDS011;67762;52.476;6.046;2023-05-20T09:32:58;23.15;;;21.63;;
43819;SDS011;67762;52.476;6.046;2023-05-20T09:35:26;28.35;;;26.65;;
43819;SDS011;67762;52.476;6.046;2023-05-20T09:37:53;23.42;;;22.13;;
43819;SDS011;67762;52.476;6.046;2023-05-20T09:40:24;27.05;;;25.40;;
43819;SDS011;67762;52.476;6.046;2023-05-20T09:42:55;27.35;;;25.75;;
43819;SDS011;67762;52.476;6.046;2023-05-20T09:45:24;40.53;;;38.22;;
43819;SDS011;67762;52.476;6.046;2023-05-20T09:47:50;60.70;;;56.42;;
43819;SDS011;67762;52.476;6.046;2023-05-20T09:50:20;29.83;;;28.10;;
43819;SDS011;67762;52.476;6.046;2023-05-20T09:52:49;22.67;;;20.73;;
43819;SDS011;67762;52.476;6.046;2023-05-20T09:55:16;26.45;;;24.73;;
43819;SDS011;67762;52.476;6.046;2023-05-20T09:57:43;38.95;;;35.33;;
43819;SDS011;67762;52.476;6.046;2023-05-20T10:00:10;40.47;;;37.78;;
43819;SDS011;67762;52.476;6.046;2023-05-20T10:02:40;48.53;;;44.83;;
43819;SDS011;67762;52.476;6.046;2023-05-20T10:05:16;21.00;;;19.63;;
43819;SDS011;67762;52.476;6.046;2023-05-20T10:10:38;43.60;;;40.80;;
43819;SDS011;67762;52.476;6.046;2023-05-20T10:21:15;19.38;;;18.23;;
43819;SDS011;67762;52.476;6.046;2023-05-20T10:23:42;25.58;;;23.98;;
43819;SDS011;67762;52.476;6.046;2023-05-20T10:26:08;24.27;;;22.67;;
43819;SDS011;67762;52.476;6.046;2023-05-20T10:28:34;41.03;;;37.97;;
43819;SDS011;67762;52.476;6.046;2023-05-20T10:31:02;23.00;;;21.38;;
43819;SDS011;67762;52.476;6.046;2023-05-20T10:33:42;20.27;;;18.83;;
43819;SDS011;67762;52.476;6.046;2023-05-20T10:36:09;24.15;;;22.65;;
43819;SDS011;67762;52.476;6.046;2023-05-20T10:38:55;22.90;;;21.30;;
43819;SDS011;67762;52.476;6.046;2023-05-20T10:41:23;30.13;;;28.08;;
43819;SDS011;67762;52.476;6.046;2023-05-20T10:43:59;22.38;;;20.88;;
43819;SDS011;67762;52.476;6.046;2023-05-20T10:46:26;20.13;;;18.60;;
43819;SDS011;67762;52.476;6.046;2023-05-20T10:48:51;29.65;;;27.58;;
43819;SDS011;67762;52.476;6.046;2023-05-20T10:51:17;23.02;;;21.63;;
43819;SDS011;67762;52.476;6.046;2023-05-20T10:53:44;24.52;;;23.13;;
43819;SDS011;67762;52.476;6.046;2023-05-20T10:56:17;21.15;;;19.75;;
43819;SDS011;67762;52.476;6.046;2023-05-20T10:58:45;24.10;;;22.60;;
43819;SDS011;67762;52.476;6.046;2023-05-20T11:01:11;24.02;;;22.10;;
43819;SDS011;67762;52.476;6.046;2023-05-20T11:03:39;21.60;;;20.23;;
43819;SDS011;67762;52.476;6.046;2023-05-20T11:06:15;18.13;;;16.65;;
43819;SDS011;67762;52.476;6.046;2023-05-20T11:08:42;25.20;;;23.42;;
43819;SDS011;67762;52.476;6.046;2023-05-20T11:11:12;18.08;;;16.52;;
43819;SDS011;67762;52.476;6.046;2023-05-20T11:13:39;24.58;;;23.00;;
43819;SDS011;67762;52.476;6.046;2023-05-20T11:16:05;26.35;;;24.58;;
43819;SDS011;67762;52.476;6.046;2023-05-20T11:18:31;22.65;;;21.30;;
43819;SDS011;67762;52.476;6.046;2023-05-20T11:20:58;22.67;;;21.27;;
43819;SDS011;67762;52.476;6.046;2023-05-20T11:23:26;23.33;;;21.60;;
43819;SDS011;67762;52.476;6.046;2023-05-20T11:25:53;23.40;;;21.88;;
43819;SDS011;67762;52.476;6.046;2023-05-20T11:28:20;22.90;;;21.33;;
43819;SDS011;67762;52.476;6.046;2023-05-20T11:30:46;19.05;;;17.88;;
43819;SDS011;67762;52.476;6.046;2023-05-20T11:33:13;23.30;;;21.30;;
43819;SDS011;67762;52.476;6.046;2023-05-20T11:35:45;36.78;;;34.40;;
43819;SDS011;67762;52.476;6.046;2023-05-20T11:38:12;21.35;;;20.05;;
43819;SDS011;67762;52.476;6.046;2023-05-20T11:40:42;18.67;;;17.48;;
43819;SDS011;67762;52.476;6.046;2023-05-20T11:43:12;18.88;;;17.58;;
43819;SDS011;67762;52.476;6.046;2023-05-20T11:45:39;16.70;;;15.70;;
43819;SDS011;67762;52.476;6.046;2023-05-20T11:48:05;26.38;;;23.83;;
43819;SDS011;67762;52.476;6.046;2023-05-20T11:50:35;16.67;;;15.77;;
43819;SDS011;67762;52.476;6.046;2023-05-20T11:53:05;19.27;;;18.10;;
43819;SDS011;67762;52.476;6.046;2023-05-20T11:55:45;25.48;;;23.73;;
43819;SDS011;67762;52.476;6.046;2023-05-20T11:58:19;24.35;;;22.88;;
43819;SDS011;67762;52.476;6.046;2023-05-20T12:00:48;16.05;;;14.95;;
43819;SDS011;67762;52.476;6.046;2023-05-20T12:03:14;18.55;;;17.45;;
43819;SDS011;67762;52.476;6.046;2023-05-20T12:05:40;21.65;;;20.08;;
43819;SDS011;67762;52.476;6.046;2023-05-20T12:08:06;17.52;;;16.40;;
43819;SDS011;67762;52.476;6.046;2023-05-20T12:10:32;32.50;;;30.17;;
43819;SDS011;67762;52.476;6.046;2023-05-20T12:12:59;23.95;;;22.33;;
43819;SDS011;67762;52.476;6.046;2023-05-20T12:15:24;19.98;;;18.67;;
43819;SDS011;67762;52.476;6.046;2023-05-20T12:17:51;20.05;;;18.77;;
43819;SDS011;67762;52.476;6.046;2023-05-20T12:20:18;19.58;;;18.10;;
43819;SDS011;67762;52.476;6.046;2023-05-20T12:22:46;18.00;;;16.80;;
43819;SDS011;67762;52.476;6.046;2023-05-20T12:25:12;24.08;;;22.67;;
43819;SDS011;67762;52.476;6.046;2023-05-20T12:27:43;18.67;;;17.60;;
43819;SDS011;67762;52.476;6.046;2023-05-20T12:30:16;20.88;;;19.60;;
43819;SDS011;67762;52.476;6.046;2023-05-20T12:32:43;20.85;;;19.30;;
43819;SDS011;67762;52.476;6.046;2023-05-20T12:35:10;18.08;;;16.90;;
43819;SDS011;67762;52.476;6.046;2023-05-20T12:37:39;19.83;;;18.75;;
43819;SDS011;67762;52.476;6.046;2023-05-20T12:40:09;23.08;;;21.33;;
43819;SDS011;67762;52.476;6.046;2023-05-20T12:42:37;19.42;;;18.02;;
43819;SDS011;67762;52.476;6.046;2023-05-20T12:45:04;16.33;;;15.15;;
43819;SDS011;67762;52.476;6.046;2023-05-20T12:47:31;22.52;;;21.08;;
43819;SDS011;67762;52.476;6.046;2023-05-20T12:49:57;18.15;;;17.05;;
43819;SDS011;67762;52.476;6.046;2023-05-20T12:52:24;18.73;;;17.40;;
43819;SDS011;67762;52.476;6.046;2023-05-20T12:54:50;16.63;;;15.23;;
43819;SDS011;67762;52.476;6.046;2023-05-20T12:57:16;20.02;;;18.38;;
43819;SDS011;67762;52.476;6.046;2023-05-20T12:59:43;20.63;;;18.92;;
43819;SDS011;67762;52.476;6.046;2023-05-20T13:02:09;18.98;;;17.42;;
43819;SDS011;67762;52.476;6.046;2023-05-20T13:04:38;17.25;;;16.00;;
43819;SDS011;67762;52.476;6.046;2023-05-20T13:07:03;16.75;;;15.75;;
43819;SDS011;67762;52.476;6.046;2023-05-20T13:09:29;21.58;;;20.23;;
43819;SDS011;67762;52.476;6.046;2023-05-20T13:11:55;18.85;;;17.67;;
43819;SDS011;67762;52.476;6.046;2023-05-20T13:14:20;20.02;;;18.88;;
43819;SDS011;67762;52.476;6.046;2023-05-20T13:16:46;19.33;;;18.23;;
43819;SDS011;67762;52.476;6.046;2023-05-20T13:19:14;18.15;;;16.85;;
43819;SDS011;67762;52.476;6.046;2023-05-20T13:21:40;21.77;;;20.23;;
43819;SDS011;67762;52.476;6.046;2023-05-20T13:24:05;23.58;;;22.20;;
43819;SDS011;67762;52.476;6.046;2023-05-20T13:26:31;19.40;;;18.30;;
43819;SDS011;67762;52.476;6.046;2023-05-20T13:28:56;18.13;;;17.00;;
43819;SDS011;67762;52.476;6.046;2023-05-20T13:31:22;16.85;;;15.80;;
43819;SDS011;67762;52.476;6.046;2023-05-20T13:33:48;17.45;;;16.13;;
43819;SDS011;67762;52.476;6.046;2023-05-20T13:36:16;16.00;;;14.80;;
43819;SDS011;67762;52.476;6.046;2023-05-20T13:38:42;20.73;;;19.02;;
43819;SDS011;67762;52.476;6.046;2023-05-20T13:41:08;19.30;;;17.98;;
43819;SDS011;67762;52.476;6.046;2023-05-20T13:43:33;16.55;;;15.52;;
43819;SDS011;67762;52.476;6.046;2023-05-20T13:45:59;16.95;;;15.45;;
43819;SDS011;67762;52.476;6.046;2023-05-20T13:48:24;15.88;;;14.77;;
43819;SDS011;67762;52.476;6.046;2023-05-20T13:50:50;20.95;;;19.30;;
43819;SDS011;67762;52.476;6.046;2023-05-20T13:53:16;17.50;;;16.33;;
43819;SDS011;67762;52.476;6.046;2023-05-20T13:55:41;17.58;;;16.58;;
43819;SDS011;67762;52.476;6.046;2023-05-20T13:58:07;18.17;;;16.85;;
43819;SDS011;67762;52.476;6.046;2023-05-20T14:00:35;22.30;;;21.10;;
43819;SDS011;67762;52.476;6.046;2023-05-20T14:03:01;20.17;;;18.77;;
43819;SDS011;67762;52.476;6.046;2023-05-20T14:05:32;17.55;;;16.23;;
43819;SDS011;67762;52.476;6.046;2023-05-20T14:08:00;19.42;;;18.23;;
43819;SDS011;67762;52.476;6.046;2023-05-20T14:10:26;25.23;;;23.77;;
43819;SDS011;67762;52.476;6.046;2023-05-20T14:12:52;20.75;;;19.27;;
43819;SDS011;67762;52.476;6.046;2023-05-20T14:15:19;22.45;;;21.08;;
43819;SDS011;67762;52.476;6.046;2023-05-20T14:17:46;21.92;;;20.63;;
43819;SDS011;67762;52.476;6.046;2023-05-20T14:20:12;20.10;;;18.75;;
43819;SDS011;67762;52.476;6.046;2023-05-20T14:22:37;20.50;;;19.00;;
43819;SDS011;67762;52.476;6.046;2023-05-20T14:25:03;19.08;;;17.95;;
43819;SDS011;67762;52.476;6.046;2023-05-20T14:27:29;18.27;;;17.00;;
43819;SDS011;67762;52.476;6.046;2023-05-20T14:29:55;17.48;;;16.45;;
43819;SDS011;67762;52.476;6.046;2023-05-20T14:32:21;22.55;;;21.05;;
43819;SDS011;67762;52.476;6.046;2023-05-20T14:34:46;19.77;;;18.48;;
43819;SDS011;67762;52.476;6.046;2023-05-20T14:37:12;20.05;;;18.73;;
43819;SDS011;67762;52.476;6.046;2023-05-20T14:39:39;30.77;;;28.88;;